Isola Celeste — 9HOD9 — position and weather

sailwx.info

Track history (hours):
 
Tides and Currents Weather Stations Pressure Air Temp Water Temp Dewpoint Dewpoint Depression Visibility Wind Speed Wind Dir Waves Ship Positions

Isola Celeste

Last reported at 2018-Jan-20 00:24 UTC. Time now 2018-Jan-20 01:24 UTC.
Position N 40°30' W 010°12'.

Length 182 m; draft 12.7 m.

Type: Tanker. MMSI: 249263000.

Date/timePositionNaut miles runAvg speedWind from/ knotsBaromVisibWave heightAir tempDewpointWater temp
2018-Jan-20 00:24N 40°30' W 010°12'  
2018-Jan-11 17:56N 58°21' E 011°26'0 0.4
2018-Jan-11 17:30N 58°21' E 011°26'2 4.0
2018-Jan-11 17:00N 58°20' E 011°23'5 9.7
2018-Jan-11 16:30N 58°17' E 011°17'5 9.9
2018-Jan-11 16:00N 58°12' E 011°11'1 2.0
2018-Jan-11 15:29N 58°11' E 011°11'0 0.1
2018-Jan-11 14:59N 58°11' E 011°11'0 0.0
2018-Jan-11 14:29N 58°11' E 011°11'0 0.0
2018-Jan-11 13:56N 58°11' E 011°11'0 0.0
2018-Jan-11 13:23N 58°12' E 011°11'0 0.0
2018-Jan-11 12:53N 58°11' E 011°11'0 0.0
2018-Jan-11 12:23N 58°11' E 011°11'0 0.0
2018-Jan-11 11:59N 58°11' E 011°11'0 0.0
2018-Jan-11 11:20N 58°11' E 011°11'0 0.0
2018-Jan-11 10:59N 58°12' E 011°11'0 0.0
2018-Jan-11 10:29N 58°12' E 011°11'0 0.0
2018-Jan-11 09:56N 58°11' E 011°11'0 0.0
2018-Jan-11 09:29N 58°11' E 011°11'0 0.0
2018-Jan-11 08:59N 58°11' E 011°11'0 0.0
2018-Jan-11 08:29N 58°11' E 011°11'0 0.0
2018-Jan-11 07:56N 58°11' E 011°11'0 0.0
2018-Jan-11 07:29N 58°11' E 011°11'0 0.0
2018-Jan-11 06:59N 58°11' E 011°11'0 0.0
2018-Jan-11 06:23N 58°11' E 011°11'0 0.0
2018-Jan-11 05:59N 58°11' E 011°11'0 0.0
2018-Jan-11 05:29N 58°11' E 011°11'0 0.0
2018-Jan-11 04:59N 58°11' E 011°11'0 0.0
2018-Jan-11 04:29N 58°11' E 011°11'0 0.0
2018-Jan-11 03:59N 58°11' E 011°11'0 0.0
2018-Jan-11 03:29N 58°11' E 011°11'0 0.0
2018-Jan-11 02:59N 58°11' E 011°11'0 0.0
2018-Jan-11 02:26N 58°11' E 011°11'0 0.0
2018-Jan-11 01:56N 58°11' E 011°11'0 0.0
2018-Jan-11 01:29N 58°11' E 011°11'0 0.0
2018-Jan-11 00:59N 58°11' E 011°11'0 0.0
2018-Jan-11 00:14N 58°11' E 011°11'0 0.0
2018-Jan-10 23:59N 58°11' E 011°11'0 0.0
2018-Jan-10 23:29N 58°12' E 011°11'0 0.0
2018-Jan-10 22:41N 58°12' E 011°11'0 0.0
2018-Jan-10 22:26N 58°12' E 011°11'0 0.0
2018-Jan-10 21:56N 58°12' E 011°11'0 0.0
2018-Jan-10 21:26N 58°12' E 011°11'0 0.0
2018-Jan-10 20:59N 58°11' E 011°11'1 1.2
2018-Jan-10 20:30N 58°11' E 011°10'5 9.5
2018-Jan-10 20:00N 58°09' E 011°02'612.3
2018-Jan-10 19:31N 58°06' E 010°52'713.8
2018-Jan-10 19:00N 58°04' E 010°40'714.2
2018-Jan-10 18:30N 58°01' E 010°28'714.2
2018-Jan-10 18:00N 57°58' E 010°15'714.0
2018-Jan-10 17:30N 57°55' E 010°04'713.7
2018-Jan-10 17:00N 57°52' E 009°52'713.5
2018-Jan-10 16:29N 57°48' E 009°40'613.6
2018-Jan-10 16:00N 57°45' E 009°30'713.3
2018-Jan-10 15:28N 57°42' E 009°18'612.9
2018-Jan-10 14:59N 57°39' E 009°08'712.7
2018-Jan-10 14:27N 57°35' E 008°57'512.4
2018-Jan-10 14:01N 57°33' E 008°48'612.5
2018-Jan-10 13:30N 57°31' E 008°37'612.5
2018-Jan-10 12:59N 57°28' E 008°26'712.8
2018-Jan-10 12:29N 57°25' E 008°16'  
Track history (hours):
 
Tides and Currents Weather Stations Pressure Air Temp Water Temp Dewpoint Dewpoint Depression Visibility Wind Speed Wind Dir Waves Ship Positions

Isola Celeste

Last reported at 2018-Jan-20 00:24 UTC. Time now 2018-Jan-20 01:24 UTC.
Position N 40°30' W 010°12'.

Length 182 m; draft 12.7 m.

Type: Tanker. MMSI: 249263000.

Date/timePositionNaut miles runAvg speedWind from/ knotsBaromVisibWave heightAir tempDewpointWater temp
2018-Jan-20 00:24N 40°30' W 010°12'  
2018-Jan-11 17:56N 58°21' E 011°26'0 0.4
2018-Jan-11 17:30N 58°21' E 011°26'2 4.0
2018-Jan-11 17:00N 58°20' E 011°23'5 9.7
2018-Jan-11 16:30N 58°17' E 011°17'5 9.9
2018-Jan-11 16:00N 58°12' E 011°11'1 2.0
2018-Jan-11 15:29N 58°11' E 011°11'0 0.1
2018-Jan-11 14:59N 58°11' E 011°11'0 0.0
2018-Jan-11 14:29N 58°11' E 011°11'0 0.0
2018-Jan-11 13:56N 58°11' E 011°11'0 0.0
2018-Jan-11 13:23N 58°12' E 011°11'0 0.0
2018-Jan-11 12:53N 58°11' E 011°11'0 0.0
2018-Jan-11 12:23N 58°11' E 011°11'0 0.0
2018-Jan-11 11:59N 58°11' E 011°11'0 0.0
2018-Jan-11 11:20N 58°11' E 011°11'0 0.0
2018-Jan-11 10:59N 58°12' E 011°11'0 0.0
2018-Jan-11 10:29N 58°12' E 011°11'0 0.0
2018-Jan-11 09:56N 58°11' E 011°11'0 0.0
2018-Jan-11 09:29N 58°11' E 011°11'0 0.0
2018-Jan-11 08:59N 58°11' E 011°11'0 0.0
2018-Jan-11 08:29N 58°11' E 011°11'0 0.0
2018-Jan-11 07:56N 58°11' E 011°11'0 0.0
2018-Jan-11 07:29N 58°11' E 011°11'0 0.0
2018-Jan-11 06:59N 58°11' E 011°11'0 0.0
2018-Jan-11 06:23N 58°11' E 011°11'0 0.0
2018-Jan-11 05:59N 58°11' E 011°11'0 0.0
2018-Jan-11 05:29N 58°11' E 011°11'0 0.0
2018-Jan-11 04:59N 58°11' E 011°11'0 0.0
2018-Jan-11 04:29N 58°11' E 011°11'0 0.0
2018-Jan-11 03:59N 58°11' E 011°11'0 0.0
2018-Jan-11 03:29N 58°11' E 011°11'0 0.0
2018-Jan-11 02:59N 58°11' E 011°11'0 0.0
2018-Jan-11 02:26N 58°11' E 011°11'0 0.0
2018-Jan-11 01:56N 58°11' E 011°11'0 0.0
2018-Jan-11 01:29N 58°11' E 011°11'0 0.0
2018-Jan-11 00:59N 58°11' E 011°11'0 0.0
2018-Jan-11 00:14N 58°11' E 011°11'0 0.0
2018-Jan-10 23:59N 58°11' E 011°11'0 0.0
2018-Jan-10 23:29N 58°12' E 011°11'0 0.0
2018-Jan-10 22:41N 58°12' E 011°11'0 0.0
2018-Jan-10 22:26N 58°12' E 011°11'0 0.0
2018-Jan-10 21:56N 58°12' E 011°11'0 0.0
2018-Jan-10 21:26N 58°12' E 011°11'0 0.0
2018-Jan-10 20:59N 58°11' E 011°11'1 1.2
2018-Jan-10 20:30N 58°11' E 011°10'5 9.5
2018-Jan-10 20:00N 58°09' E 011°02'612.3
2018-Jan-10 19:31N 58°06' E 010°52'713.8
2018-Jan-10 19:00N 58°04' E 010°40'714.2
2018-Jan-10 18:30N 58°01' E 010°28'714.2
2018-Jan-10 18:00N 57°58' E 010°15'714.0
2018-Jan-10 17:30N 57°55' E 010°04'713.7
2018-Jan-10 17:00N 57°52' E 009°52'713.5
2018-Jan-10 16:29N 57°48' E 009°40'613.6
2018-Jan-10 16:00N 57°45' E 009°30'713.3
2018-Jan-10 15:28N 57°42' E 009°18'612.9
2018-Jan-10 14:59N 57°39' E 009°08'712.7
2018-Jan-10 14:27N 57°35' E 008°57'512.4
2018-Jan-10 14:01N 57°33' E 008°48'612.5
2018-Jan-10 13:30N 57°31' E 008°37'612.5
2018-Jan-10 12:59N 57°28' E 008°26'712.8
2018-Jan-10 12:29N 57°25' E 008°16'  

Dump ship's entire track history